Clermont, Florida
Current Conditions -  °F | °C
As of 7:53 PM on Tuesday 21 Oct 2014 (Local Time) from KLEE Reporting Station
Clear Clear  
Wind Chill: 73°   Ceiling: Unl
Heat Index: 73°   Visibility: 10mi
Dew Point: 66°   Wind: 0mph
Humidity: 79%   Direction: NA
Pressure: 29.95"   Gusts: NA
Location:  28.55°N, 81.77°W
Report Text: KLEE 212353Z AUTO 00000KT 10SM CLR 23/19 A2995 RMK AO2 SLP139 T02280189 10289 20222 53008
Loading
Personal Weather Stations






























Interactive Weather Map
Tropical Storm Tracking
New forecast layout! Learn more

10-Day Weather Forecast

Advertisements
Track Severe Weather on mobile